Time;durP1;ratioP1;P1;durP2;ratioP2;P2;SDS_P1;SDS_P2;PMS_P1;PMS_P2;Temp;Humidity;BMP_temperature;BMP_pressure;BME280_temperature;BME280_humidity;BME280_pressure;Samples;Min_cycle;Max_cycle;Signal;HPM_P1;HPM_P2
2021/05/27 00:00:11;;;;;;;1.90;0.80;;;21.00;53.40;;;;;;5053794;28;20767;-57
2021/05/27 00:02:38;;;;;;;2.63;0.90;;;21.00;53.30;;;;;;5060245;28;20226;-56
2021/05/27 00:05:06;;;;;;;1.93;0.70;;;21.00;53.30;;;;;;5065846;28;20217;-56
2021/05/27 00:07:33;;;;;;;1.10;0.90;;;21.00;53.30;;;;;;5061336;28;20605;-57
2021/05/27 00:10:01;;;;;;;1.13;0.90;;;21.00;53.30;;;;;;5047083;28;20248;-57
2021/05/27 00:12:28;;;;;;;1.20;0.80;;;20.90;53.30;;;;;;5051209;28;20236;-56
2021/05/27 00:14:55;;;;;;;1.10;0.77;;;20.90;53.20;;;;;;5057652;28;20580;-57
2021/05/27 00:17:22;;;;;;;1.30;0.90;;;20.90;53.30;;;;;;5063858;28;20240;-57
2021/05/27 00:19:48;;;;;;;1.33;0.80;;;20.90;53.30;;;;;;5058227;28;20237;-57
2021/05/27 00:22:15;;;;;;;1.10;0.90;;;20.90;53.20;;;;;;5056131;28;20774;-56
2021/05/27 00:24:42;;;;;;;0.90;0.70;;;20.90;53.30;;;;;;5057612;28;20222;-56
2021/05/27 00:27:09;;;;;;;1.73;0.90;;;20.90;53.20;;;;;;5064139;28;20217;-56
2021/05/27 00:29:36;;;;;;;1.30;0.80;;;20.90;53.30;;;;;;5056222;28;20229;-56
2021/05/27 00:32:03;;;;;;;1.60;1.00;;;20.90;53.20;;;;;;5053126;28;20221;-56
2021/05/27 00:34:29;;;;;;;1.37;0.93;;;20.80;53.20;;;;;;5053800;28;20226;-57
2021/05/27 00:36:57;;;;;;;1.33;0.90;;;20.80;53.20;;;;;;5063680;28;20245;-57
2021/05/27 00:39:24;;;;;;;1.60;1.00;;;20.90;53.30;;;;;;5062212;28;20221;-56
2021/05/27 00:41:50;;;;;;;1.43;0.87;;;20.80;53.20;;;;;;5062276;28;21443;-57
2021/05/27 00:44:19;;;;;;;1.73;0.70;;;20.80;53.30;;;;;;5052343;28;20225;-57
2021/05/27 00:46:46;;;;;;;1.73;0.83;;;20.80;53.20;;;;;;5058857;28;20328;-57
2021/05/27 00:49:13;;;;;;;2.10;1.10;;;20.80;53.20;;;;;;5063021;28;20316;-57
2021/05/27 00:51:42;;;;;;;1.90;0.90;;;20.80;53.30;;;;;;5058485;28;20226;-56
2021/05/27 00:54:09;;;;;;;1.13;1.00;;;20.80;53.20;;;;;;5064625;28;20225;-56
2021/05/27 00:56:36;;;;;;;1.00;0.90;;;20.80;53.30;;;;;;5055880;28;20229;-56
2021/05/27 00:59:03;;;;;;;1.43;1.00;;;20.80;53.30;;;;;;5050588;28;20225;-57
2021/05/27 01:01:31;;;;;;;1.57;0.97;;;20.70;53.20;;;;;;5053352;28;20234;-57
2021/05/27 01:03:58;;;;;;;1.30;1.03;;;20.80;53.20;;;;;;5051663;28;20685;-57
2021/05/27 01:06:25;;;;;;;1.37;1.00;;;20.70;53.10;;;;;;5053690;28;20702;-58
2021/05/27 01:08:52;;;;;;;1.43;0.97;;;20.70;53.10;;;;;;5054934;28;20236;-57
2021/05/27 01:11:19;;;;;;;1.10;0.97;;;20.70;53.10;;;;;;5060098;28;20248;-56
2021/05/27 01:13:46;;;;;;;1.17;0.90;;;20.80;53.20;;;;;;5062021;28;20234;-56
2021/05/27 01:16:18;;;;;;;2.30;1.23;;;20.70;53.10;;;;;;5060867;28;20235;-56
2021/05/27 01:18:45;;;;;;;1.83;1.20;;;20.70;53.10;;;;;;5058895;28;20230;-57
2021/05/27 01:21:12;;;;;;;2.50;1.10;;;20.70;53.10;;;;;;5048158;28;20229;-56
2021/05/27 01:23:39;;;;;;;1.70;0.90;;;20.70;53.10;;;;;;5057962;28;20229;-57
2021/05/27 01:26:12;;;;;;;1.67;1.10;;;20.70;53.10;;;;;;5064496;28;20237;-56
2021/05/27 01:28:41;;;;;;;1.87;1.13;;;20.70;53.10;;;;;;5058813;28;20214;-56
2021/05/27 01:31:09;;;;;;;1.43;0.93;;;20.70;53.10;;;;;;5049616;28;20244;-56
2021/05/27 01:33:37;;;;;;;2.83;1.30;;;20.70;53.10;;;;;;5051385;28;20218;-57
2021/05/27 01:36:05;;;;;;;1.93;1.40;;;20.70;53.10;;;;;;5059026;28;20226;-57
2021/05/27 01:38:32;;;;;;;1.73;1.00;;;20.70;53.10;;;;;;5055410;28;20225;-57
2021/05/27 01:41:01;;;;;;;2.93;1.40;;;20.70;53.10;;;;;;5064330;28;20227;-56
2021/05/27 01:43:29;;;;;;;2.30;1.50;;;20.70;53.10;;;;;;5059950;28;20232;-57
2021/05/27 01:45:56;;;;;;;1.93;1.20;;;20.70;53.10;;;;;;5059705;28;20230;-57
2021/05/27 01:48:23;;;;;;;2.93;1.30;;;20.60;53.10;;;;;;5047650;28;20226;-56
2021/05/27 01:50:50;;;;;;;3.70;1.50;;;20.60;53.10;;;;;;5056551;28;20222;-56
2021/05/27 01:53:18;;;;;;;1.47;1.10;;;20.70;53.10;;;;;;5064306;28;20228;-56
2021/05/27 01:55:49;;;;;;;2.70;1.30;;;20.60;53.00;;;;;;5056455;28;21424;-57
2021/05/27 01:58:18;;;;;;;2.47;1.40;;;20.70;53.10;;;;;;5047569;28;20252;-57
2021/05/27 02:00:45;;;;;;;2.47;1.40;;;20.60;53.00;;;;;;5061078;28;20230;-57
2021/05/27 02:03:12;;;;;;;2.63;1.47;;;20.60;53.00;;;;;;5054635;28;20608;-56
2021/05/27 02:05:39;;;;;;;3.43;1.53;;;20.60;53.00;;;;;;5056783;28;20600;-56
2021/05/27 02:08:06;;;;;;;1.97;1.30;;;20.60;52.90;;;;;;5061553;28;20731;-57
2021/05/27 02:10:33;;;;;;;2.33;1.40;;;20.60;52.90;;;;;;5053727;28;20226;-56
2021/05/27 02:13:00;;;;;;;2.83;1.60;;;20.60;52.90;;;;;;5067633;28;20213;-57
2021/05/27 02:15:26;;;;;;;3.40;1.73;;;20.60;52.90;;;;;;5063823;28;20274;-57
2021/05/27 02:17:53;;;;;;;2.87;1.60;;;20.60;52.80;;;;;;5060308;28;20225;-56
2021/05/27 02:20:20;;;;;;;3.77;1.53;;;20.60;52.80;;;;;;5051270;28;20226;-57
2021/05/27 02:22:47;;;;;;;2.47;1.27;;;20.60;52.70;;;;;;5060945;28;20229;-57
2021/05/27 02:25:14;;;;;;;3.27;1.73;;;20.50;52.70;;;;;;5067200;28;20229;-57
2021/05/27 02:27:41;;;;;;;2.60;1.77;;;20.60;52.70;;;;;;5060742;28;20225;-57
2021/05/27 02:30:08;;;;;;;2.40;1.70;;;20.60;52.50;;;;;;5077694;28;20719;-57
2021/05/27 02:32:35;;;;;;;2.60;1.97;;;20.50;52.50;;;;;;5047505;28;20300;-57
2021/05/27 02:35:02;;;;;;;2.73;1.80;;;20.50;52.30;;;;;;5053155;28;20225;-57
2021/05/27 02:37:29;;;;;;;3.17;2.07;;;20.50;52.50;;;;;;5063085;28;20968;-57
2021/05/27 02:39:56;;;;;;;3.23;1.90;;;20.60;52.40;;;;;;5067486;28;20218;-57
2021/05/27 02:42:22;;;;;;;3.27;2.10;;;20.50;52.30;;;;;;5062330;28;20229;-57
2021/05/27 02:44:49;;;;;;;3.77;2.43;;;20.50;52.30;;;;;;5065925;28;20232;-57
2021/05/27 02:47:16;;;;;;;2.90;2.23;;;20.50;52.30;;;;;;5052845;28;20241;-57
2021/05/27 02:49:43;;;;;;;3.27;2.23;;;20.50;52.20;;;;;;5060327;28;20237;-57
2021/05/27 02:52:09;;;;;;;2.90;2.07;;;20.50;52.20;;;;;;5049761;28;20764;-57
2021/05/27 02:54:37;;;;;;;4.07;2.30;;;20.50;52.20;;;;;;5058150;28;20230;-57
2021/05/27 02:57:04;;;;;;;5.03;2.30;;;20.50;52.20;;;;;;5064852;28;20633;-57
2021/05/27 02:59:30;;;;;;;4.27;2.57;;;20.50;52.20;;;;;;5060243;28;20217;-57
2021/05/27 03:01:57;;;;;;;2.83;2.17;;;20.50;52.20;;;;;;5050493;28;20233;-57
2021/05/27 03:04:24;;;;;;;5.80;2.73;;;20.40;52.10;;;;;;5059077;28;20562;-57
2021/05/27 03:06:51;;;;;;;2.57;2.20;;;20.50;52.20;;;;;;5060120;28;20860;-57
2021/05/27 03:09:18;;;;;;;3.20;2.60;;;20.50;52.10;;;;;;5061253;28;20244;-57
2021/05/27 03:11:45;;;;;;;3.63;2.60;;;20.50;52.10;;;;;;5067228;28;20228;-57
2021/05/27 03:14:12;;;;;;;5.07;2.90;;;20.40;52.00;;;;;;5055081;28;20226;-57
2021/05/27 03:16:38;;;;;;;3.17;2.37;;;20.40;52.00;;;;;;5055544;28;20221;-57
2021/05/27 03:19:05;;;;;;;4.03;2.33;;;20.40;52.00;;;;;;5060585;28;20229;-57
2021/05/27 03:21:32;;;;;;;5.00;2.47;;;20.40;52.00;;;;;;5066933;28;20209;-57
2021/05/27 03:23:59;;;;;;;3.47;2.30;;;20.40;52.00;;;;;;5061872;28;20222;-57
2021/05/27 03:26:26;;;;;;;3.53;2.20;;;20.40;52.00;;;;;;5063116;28;20210;-58
2021/05/27 03:28:52;;;;;;;4.03;2.50;;;20.40;52.00;;;;;;5062551;28;20224;-57
2021/05/27 03:31:19;;;;;;;3.90;2.60;;;20.40;52.00;;;;;;5064162;28;20225;-57
2021/05/27 03:33:46;;;;;;;3.20;2.70;;;20.40;51.90;;;;;;5062445;28;21018;-57
2021/05/27 03:36:13;;;;;;;2.93;2.33;;;20.40;51.90;;;;;;5059853;28;20213;-57
2021/05/27 03:38:39;;;;;;;2.80;2.20;;;20.40;51.90;;;;;;5060321;28;20218;-57
2021/05/27 03:41:06;;;;;;;4.97;3.00;;;20.40;51.80;;;;;;5059115;28;20693;-57
2021/05/27 03:43:34;;;;;;;3.10;2.57;;;20.40;51.80;;;;;;5066984;28;20225;-57
2021/05/27 03:46:02;;;;;;;4.03;2.87;;;20.40;51.80;;;;;;5055813;28;20214;-57
2021/05/27 03:48:28;;;;;;;3.37;2.90;;;20.40;51.80;;;;;;5053531;28;20581;-57
2021/05/27 03:50:55;;;;;;;2.97;2.67;;;20.30;52.40;;;;;;5039530;28;20231;-59
2021/05/27 03:53:22;;;;;;;5.30;3.00;;;20.30;51.70;;;;;;5038124;28;20222;-57
2021/05/27 03:55:49;;;;;;;5.00;2.63;;;20.30;51.70;;;;;;5043310;28;20225;-57
2021/05/27 04:01:01;;;;;;;4.13;2.80;;;20.30;51.70;;;;;;5033854;28;20310;-57
2021/05/27 04:05:55;;;;;;;4.70;3.03;;;20.30;51.70;;;;;;5041404;28;20422;-57
2021/05/27 04:08:59;;;;;;;4.63;3.10;;;20.30;51.60;;;;;;5041596;28;20635;-57
2021/05/27 04:11:26;;;;;;;3.67;2.90;;;20.30;51.60;;;;;;5045882;28;20214;-57
2021/05/27 04:13:53;;;;;;;4.73;3.20;;;20.30;51.70;;;;;;5042673;28;20717;-57
2021/05/27 04:16:20;;;;;;;4.20;3.40;;;20.30;51.70;;;;;;5043123;28;20227;-57
2021/05/27 04:18:47;;;;;;;5.47;3.30;;;20.30;51.70;;;;;;5043728;28;20229;-57
2021/05/27 04:21:14;;;;;;;5.40;3.27;;;20.30;51.70;;;;;;5044231;28;20211;-57
2021/05/27 04:23:41;;;;;;;5.77;3.37;;;20.30;51.60;;;;;;5043518;28;20218;-56
2021/05/27 04:28:52;;;;;;;5.50;3.30;;;20.30;51.50;;;;;;5046884;28;20627;-57
2021/05/27 04:31:19;;;;;;;4.73;3.47;;;20.30;51.60;;;;;;5042270;28;20893;-55
2021/05/27 04:33:54;;;;;;;4.97;3.33;;;20.30;51.50;;;;;;5045193;28;20234;-56
2021/05/27 04:36:21;;;;;;;5.80;3.27;;;20.30;51.50;;;;;;5041985;28;20642;-56
2021/05/27 04:38:49;;;;;;;3.53;3.03;;;20.30;51.50;;;;;;5045324;28;20218;-56
2021/05/27 04:41:18;;;;;;;5.07;3.00;;;20.30;51.50;;;;;;5034622;28;20234;-56
2021/05/27 04:43:53;;;;;;;5.33;3.40;;;20.30;51.50;;;;;;5037373;28;20226;-56
2021/05/27 04:46:25;;;;;;;7.13;3.80;;;20.20;51.40;;;;;;5042810;28;20499;-56
2021/05/27 04:48:52;;;;;;;4.37;3.10;;;20.20;51.50;;;;;;5040442;28;20433;-56
2021/05/27 04:51:19;;;;;;;3.47;3.13;;;20.30;51.50;;;;;;5045338;28;20222;-57
2021/05/27 04:53:46;;;;;;;4.50;3.30;;;20.20;51.50;;;;;;5057096;28;20252;-56
2021/05/27 04:56:14;;;;;;;3.67;3.00;;;20.20;51.60;;;;;;5053365;28;20225;-57
2021/05/27 04:58:40;;;;;;;4.43;3.43;;;20.20;51.60;;;;;;5058286;28;20211;-56
2021/05/27 05:01:07;;;;;;;4.43;3.43;;;20.20;51.60;;;;;;5050068;28;20909;-57
2021/05/27 05:03:34;;;;;;;4.30;3.20;;;20.20;51.60;;;;;;5055175;28;20222;-57
2021/05/27 05:06:01;;;;;;;4.63;3.03;;;20.20;51.70;;;;;;5061039;28;20225;-61
2021/05/27 05:08:28;;;;;;;5.30;3.07;;;20.20;51.80;;;;;;5052721;28;20229;-61
2021/05/27 05:10:54;;;;;;;4.83;3.40;;;20.30;51.90;;;;;;5054451;28;20791;-59
2021/05/27 05:13:21;;;;;;;4.57;3.20;;;20.20;51.90;;;;;;5059831;28;20228;-59
2021/05/27 05:15:49;;;;;;;5.40;3.50;;;20.30;51.90;;;;;;5060368;28;20232;-59
2021/05/27 05:18:16;;;;;;;6.70;3.27;;;20.30;52.10;;;;;;5052143;28;20268;-63
2021/05/27 05:20:46;;;;;;;7.83;3.63;;;20.30;52.20;;;;;;5063493;28;20230;-61
2021/05/27 05:23:12;;;;;;;4.73;3.60;;;20.40;52.20;;;;;;5066099;28;20225;-62
2021/05/27 05:25:44;;;;;;;5.20;3.57;;;20.40;52.20;;;;;;5062719;28;20984;-60
2021/05/27 05:28:12;;;;;;;4.67;3.50;;;20.40;52.10;;;;;;5075265;28;20224;-60
2021/05/27 05:30:39;;;;;;;4.80;3.27;;;20.40;52.00;;;;;;5069655;28;20232;-60
2021/05/27 05:33:07;;;;;;;6.27;3.50;;;20.50;52.00;;;;;;5047274;28;20709;-61
2021/05/27 05:35:34;;;;;;;7.33;3.17;;;20.50;51.90;;;;;;5058617;28;20236;-62
2021/05/27 05:38:01;;;;;;;8.10;3.53;;;20.50;51.90;;;;;;5063490;28;20236;-60
2021/05/27 05:40:30;;;;;;;6.23;3.33;;;20.50;51.80;;;;;;5056938;28;20222;-59
2021/05/27 05:42:57;;;;;;;4.73;3.20;;;20.60;52.20;;;;;;5063144;28;20225;-59
2021/05/27 05:45:29;;;;;;;7.70;3.30;;;20.60;52.00;;;;;;5055506;28;20736;-58
2021/05/27 05:47:58;;;;;;;5.37;3.20;;;20.70;51.90;;;;;;5054450;28;20265;-63
2021/05/27 05:53:12;;;;;;;7.57;3.63;;;20.70;51.70;;;;;;5051463;28;20240;-59
2021/05/27 05:55:39;;;;;;;8.30;3.70;;;20.70;51.90;;;;;;5057784;28;20236;-60
2021/05/27 05:58:06;;;;;;;4.83;3.00;;;20.70;51.60;;;;;;5053421;28;20232;-63
2021/05/27 06:00:34;;;;;;;6.57;3.17;;;20.80;51.50;;;;;;5052581;28;20213;-62
2021/05/27 06:03:02;;;;;;;4.40;2.70;;;20.80;51.50;;;;;;5044510;28;20221;-62
2021/05/27 06:05:29;;;;;;;5.73;3.27;;;20.80;51.40;;;;;;5047867;28;20232;-61
2021/05/27 06:07:56;;;;;;;6.50;2.90;;;20.80;51.40;;;;;;5055489;28;20336;-59
2021/05/27 06:10:24;;;;;;;12.53;3.47;;;20.90;51.40;;;;;;5054963;28;20229;-61
2021/05/27 06:12:52;;;;;;;6.20;2.90;;;20.90;51.50;;;;;;5054655;28;20360;-65
2021/05/27 06:15:21;;;;;;;9.60;3.17;;;20.90;51.50;;;;;;5048535;28;20916;-67
2021/05/27 06:17:54;;;;;;;9.00;3.97;;;21.00;52.30;;;;;;5059505;28;20874;-63
2021/05/27 06:20:21;;;;;;;7.03;3.53;;;21.00;52.70;;;;;;5044294;28;20686;-69
2021/05/27 06:22:52;;;;;;;8.17;3.27;;;21.00;52.50;;;;;;5059826;28;20244;-66
2021/05/27 06:25:23;;;;;;;9.17;3.13;;;21.00;52.30;;;;;;5051878;28;20248;-61
2021/05/27 06:27:52;;;;;;;7.37;3.40;;;21.00;52.10;;;;;;5055646;28;20236;-62
2021/05/27 06:30:20;;;;;;;6.13;3.10;;;21.10;52.10;;;;;;5049584;28;20230;-57
2021/05/27 06:32:47;;;;;;;7.50;2.73;;;21.00;52.10;;;;;;5055885;28;20568;-58
2021/05/27 06:35:15;;;;;;;6.67;3.07;;;21.10;51.90;;;;;;5061792;28;20221;-58
2021/05/27 06:37:43;;;;;;;6.87;2.97;;;21.00;51.80;;;;;;5068361;28;20759;-58
2021/05/27 06:40:18;;;;;;;5.53;3.10;;;21.00;51.80;;;;;;5065129;28;20213;-54
2021/05/27 06:42:46;;;;;;;7.03;2.90;;;21.00;51.70;;;;;;5063920;28;20213;-54
2021/05/27 06:45:14;;;;;;;6.13;3.03;;;21.00;51.60;;;;;;5069714;28;20210;-54
2021/05/27 06:47:41;;;;;;;5.17;2.87;;;21.00;51.50;;;;;;5070784;28;20233;-54
2021/05/27 06:50:13;;;;;;;4.63;2.63;;;21.00;51.40;;;;;;5066132;28;20225;-54
2021/05/27 06:52:40;;;;;;;6.10;2.77;;;21.00;51.40;;;;;;5067134;28;20232;-55
2021/05/27 06:55:08;;;;;;;20.43;6.23;;;21.00;51.40;;;;;;5065038;28;20226;-55
2021/05/27 06:57:35;;;;;;;20.93;5.97;;;21.00;52.20;;;;;;5063832;28;20215;-57
2021/05/27 07:00:04;;;;;;;15.53;4.80;;;21.00;52.10;;;;;;5060612;28;20283;-55
2021/05/27 07:02:31;;;;;;;19.47;5.47;;;21.10;52.20;;;;;;5056201;28;20217;-55
2021/05/27 07:04:59;;;;;;;20.90;4.80;;;21.10;52.40;;;;;;5057481;28;20228;-55
2021/05/27 07:07:25;;;;;;;17.07;5.37;;;21.20;52.70;;;;;;5060299;28;20237;-55
2021/05/27 07:09:54;;;;;;;14.43;5.30;;;21.20;52.90;;;;;;5059024;28;21600;-55
2021/05/27 07:12:20;;;;;;;18.33;5.50;;;21.20;52.70;;;;;;5060625;28;20700;-56
2021/05/27 07:14:47;;;;;;;12.23;5.23;;;21.30;52.80;;;;;;5058970;28;20283;-56
2021/05/27 07:17:15;;;;;;;15.10;5.40;;;21.30;52.80;;;;;;5062049;28;20221;-56
2021/05/27 07:19:41;;;;;;;15.23;5.43;;;21.40;52.70;;;;;;5067524;28;20228;-60
2021/05/27 07:22:08;;;;;;;13.67;5.23;;;21.40;51.90;;;;;;5073156;28;20213;-60
2021/05/27 07:24:35;;;;;;;12.80;4.83;;;21.30;51.40;;;;;;5066263;28;20240;-58
2021/05/27 07:27:02;;;;;;;10.33;4.90;;;21.20;51.80;;;;;;5049469;28;20274;-61
2021/05/27 07:29:32;;;;;;;9.40;4.80;;;21.20;53.00;;;;;;5058794;28;20214;-59
2021/05/27 07:32:01;;;;;;;10.50;4.43;;;21.20;52.90;;;;;;5061656;28;20700;-61
2021/05/27 07:34:28;;;;;;;10.40;4.57;;;21.20;52.90;;;;;;5059306;28;20228;-59
2021/05/27 07:36:54;;;;;;;16.17;4.30;;;21.20;52.40;;;;;;5049828;28;20217;-62
2021/05/27 07:39:21;;;;;;;10.10;4.27;;;21.20;52.20;;;;;;5055780;28;20222;-61
2021/05/27 07:41:48;;;;;;;9.07;4.20;;;21.30;52.10;;;;;;5053811;28;20229;-59
2021/05/27 07:44:15;;;;;;;9.17;4.63;;;21.30;52.30;;;;;;5058292;28;20855;-59
2021/05/27 07:46:42;;;;;;;8.83;4.03;;;21.20;52.10;;;;;;5065682;28;20265;-58
2021/05/27 07:49:08;;;;;;;7.30;3.33;;;21.20;52.30;;;;;;5054852;28;20596;-59
2021/05/27 07:51:35;;;;;;;6.23;3.50;;;21.20;52.10;;;;;;5050196;28;20233;-58
2021/05/27 07:54:02;;;;;;;7.10;3.77;;;21.30;52.30;;;;;;5061311;28;20240;-58
2021/05/27 07:56:29;;;;;;;8.77;4.60;;;21.20;51.70;;;;;;5064543;28;20214;-61
2021/05/27 07:58:56;;;;;;;6.97;3.40;;;21.30;52.10;;;;;;5057833;28;20256;-60
2021/05/27 08:01:23;;;;;;;7.57;3.87;;;21.30;51.90;;;;;;5065203;28;20221;-57
2021/05/27 08:03:50;;;;;;;7.13;3.77;;;21.30;52.10;;;;;;5057546;28;20232;-59
2021/05/27 08:06:17;;;;;;;6.57;3.47;;;21.30;51.70;;;;;;5064897;28;20229;-57
2021/05/27 08:08:44;;;;;;;7.33;3.33;;;21.30;51.60;;;;;;5052592;28;20226;-57
2021/05/27 08:11:11;;;;;;;5.33;3.20;;;21.30;52.00;;;;;;5052145;28;20217;-59
2021/05/27 08:13:37;;;;;;;8.50;4.23;;;21.30;51.40;;;;;;5055000;28;20222;-59
2021/05/27 08:16:05;;;;;;;7.10;3.80;;;21.40;51.80;;;;;;5051766;28;20233;-59
2021/05/27 08:18:31;;;;;;;8.27;3.67;;;21.40;51.60;;;;;;5060040;28;20226;-59
2021/05/27 08:20:59;;;;;;;6.43;3.77;;;21.40;51.50;;;;;;5054367;28;20229;-61
2021/05/27 08:23:26;;;;;;;8.53;3.93;;;21.40;51.00;;;;;;5051994;28;20230;-62
2021/05/27 08:25:53;;;;;;;7.50;4.30;;;21.40;51.10;;;;;;5071923;28;20534;-61
2021/05/27 08:28:20;;;;;;;12.13;4.80;;;21.40;51.30;;;;;;5058609;28;20229;-60
2021/05/27 08:30:46;;;;;;;7.70;3.70;;;21.40;51.90;;;;;;5062283;28;20229;-60
2021/05/27 08:33:13;;;;;;;5.97;3.67;;;21.40;50.90;;;;;;5053657;28;20222;-60
2021/05/27 08:35:40;;;;;;;9.30;4.17;;;21.40;50.90;;;;;;5060376;28;20236;-59
2021/05/27 08:38:07;;;;;;;6.13;4.00;;;21.40;51.50;;;;;;5056239;28;20216;-56
2021/05/27 08:40:36;;;;;;;8.93;4.37;;;21.40;51.00;;;;;;5062710;28;20756;-58
2021/05/27 08:43:04;;;;;;;8.47;4.50;;;21.30;50.80;;;;;;5051371;28;20260;-62
2021/05/27 08:45:36;;;;;;;7.80;3.83;;;21.30;50.80;;;;;;5058726;28;20217;-59
2021/05/27 08:48:11;;;;;;;6.93;4.33;;;21.30;50.80;;;;;;5053307;28;20217;-57
2021/05/27 08:50:44;;;;;;;6.00;3.70;;;21.40;50.90;;;;;;5058286;28;20233;-59
2021/05/27 08:53:13;;;;;;;9.40;5.00;;;21.30;50.70;;;;;;5051538;28;20223;-58
2021/05/27 08:55:40;;;;;;;8.13;4.70;;;21.30;50.80;;;;;;5061912;28;20232;-62
2021/05/27 08:58:06;;;;;;;6.80;4.50;;;21.20;50.60;;;;;;5062310;28;20225;-63
2021/05/27 09:00:35;;;;;;;7.67;4.40;;;21.20;51.00;;;;;;5058681;28;20225;-72
2021/05/27 09:03:04;;;;;;;8.00;4.30;;;21.20;51.30;;;;;;5061494;28;20237;-63
2021/05/27 09:05:36;;;;;;;9.57;5.00;;;21.20;50.80;;;;;;5057733;28;20253;-60
2021/05/27 09:08:26;;;;;;;12.23;4.57;;;21.10;51.20;;;;;;5056849;28;20221;-63
2021/05/27 09:10:55;;;;;;;8.67;4.80;;;21.10;50.80;;;;;;5054896;28;20955;-62
2021/05/27 09:13:22;;;;;;;8.70;4.17;;;21.10;51.30;;;;;;5059002;28;21370;-63
2021/05/27 09:15:50;;;;;;;6.40;4.20;;;21.10;51.10;;;;;;5058592;28;20224;-62
2021/05/27 09:18:35;;;;;;;6.73;4.13;;;21.20;51.40;;;;;;5057032;28;20695;-65
2021/05/27 09:21:04;;;;;;;8.27;4.23;;;21.20;51.20;;;;;;5044665;28;21086;-65
2021/05/27 09:23:31;;;;;;;9.83;5.10;;;21.20;51.20;;;;;;5064015;28;20758;-64
2021/05/27 09:26:10;;;;;;;10.80;4.23;;;21.10;51.00;;;;;;5057209;28;20807;-60
2021/05/27 09:28:37;;;;;;;7.97;3.30;;;21.10;51.50;;;;;;5062871;28;20225;-63
2021/05/27 09:31:07;;;;;;;6.10;3.93;;;21.10;51.70;;;;;;5052589;28;20577;-68
2021/05/27 09:33:40;;;;;;;4.47;3.40;;;21.00;51.30;;;;;;5057837;28;20225;-71
2021/05/27 09:36:12;;;;;;;5.20;3.40;;;21.00;51.80;;;;;;5051722;28;20225;-64
2021/05/27 09:38:44;;;;;;;6.37;3.73;;;21.00;51.70;;;;;;5061202;28;20224;-73
2021/05/27 09:41:25;;;;;;;5.20;3.70;;;21.00;51.50;;;;;;5050550;28;20233;-66
2021/05/27 09:44:13;;;;;;;5.63;3.80;;;21.00;51.60;;;;;;5056468;28;20232;-68
2021/05/27 09:46:54;;;;;;;6.90;3.40;;;21.00;51.70;;;;;;5016703;28;20440;-70
2021/05/27 09:49:25;;;;;;;7.13;3.50;;;21.00;51.20;;;;;;5049873;28;20244;-74
2021/05/27 09:51:56;;;;;;;6.27;4.37;;;21.00;51.30;;;;;;5047578;28;20214;-68
2021/05/27 09:54:24;;;;;;;9.00;4.20;;;21.00;50.90;;;;;;5058065;28;21298;-71
2021/05/27 09:56:51;;;;;;;8.77;4.50;;;20.90;51.90;;;;;;5052606;28;20221;-65
2021/05/27 09:59:18;;;;;;;8.63;4.50;;;20.80;51.90;;;;;;5057890;28;20939;-64
2021/05/27 10:02:11;;;;;;;8.00;4.63;;;20.80;51.60;;;;;;5060346;28;20227;-58
2021/05/27 10:04:58;;;;;;;10.50;4.83;;;20.80;51.50;;;;;;5021314;28;20252;-59
2021/05/27 10:07:51;;;;;;;8.63;5.03;;;20.70;51.50;;;;;;5053131;28;20495;-66
2021/05/27 10:10:38;;;;;;;7.87;4.80;;;20.60;51.40;;;;;;5023354;28;20547;-65
2021/05/27 10:13:06;;;;;;;7.67;4.57;;;20.60;51.80;;;;;;5056408;28;20221;-66
2021/05/27 10:15:34;;;;;;;8.83;5.37;;;20.60;51.80;;;;;;5061624;28;20233;-59
2021/05/27 10:18:05;;;;;;;6.37;4.10;;;20.50;52.10;;;;;;5057632;28;20217;-59
2021/05/27 10:20:33;;;;;;;7.97;4.87;;;20.50;52.20;;;;;;5047134;28;20229;-59
2021/05/27 10:23:01;;;;;;;9.60;5.20;;;20.40;52.20;;;;;;5060914;28;20414;-59
2021/05/27 10:25:28;;;;;;;7.80;4.57;;;20.30;52.50;;;;;;5050749;28;20305;-59
2021/05/27 10:28:00;;;;;;;8.70;4.70;;;20.20;52.60;;;;;;5060608;28;20222;-60
2021/05/27 10:30:27;;;;;;;9.10;5.57;;;20.10;52.30;;;;;;5057663;28;20842;-61
2021/05/27 10:33:01;;;;;;;10.27;5.57;;;20.10;52.60;;;;;;5061329;28;20240;-59
2021/05/27 10:35:51;;;;;;;11.20;5.40;;;20.10;52.30;;;;;;5064905;28;20758;-60
2021/05/27 10:38:43;;;;;;;8.97;5.53;;;20.10;52.30;;;;;;5062549;28;20224;-59
2021/05/27 10:41:14;;;;;;;8.53;5.67;;;20.10;52.30;;;;;;5048765;28;20820;-67
2021/05/27 10:44:02;;;;;;;11.17;6.23;;;20.00;52.20;;;;;;5057743;28;20218;-66
2021/05/27 10:46:52;;;;;;;10.67;5.80;;;19.90;52.30;;;;;;5059144;28;20221;-67
2021/05/27 10:49:38;;;;;;;11.00;6.57;;;19.80;52.60;;;;;;5048252;28;20229;-66
2021/05/27 10:52:27;;;;;;;13.27;7.23;;;19.70;52.90;;;;;;5027173;28;20218;-66
2021/05/27 10:54:55;;;;;;;12.53;6.57;;;19.50;52.60;;;;;;5063042;28;20504;-66
2021/05/27 10:57:40;;;;;;;13.00;6.90;;;19.50;53.20;;;;;;5055723;28;20228;-66
2021/05/27 11:00:33;;;;;;;11.07;6.73;;;19.40;53.30;;;;;;5034403;28;20785;-66
2021/05/27 11:03:38;;;;;;;7.70;6.40;;;19.50;53.10;;;;;;5057722;28;20459;-60
2021/05/27 11:06:29;;;;;;;8.43;6.20;;;19.50;53.80;;;;;;5039483;28;20229;-66
2021/05/27 11:09:16;;;;;;;8.77;6.47;;;19.50;53.70;;;;;;5072324;28;20620;-68
2021/05/27 11:11:46;;;;;;;10.60;6.50;;;19.60;53.20;;;;;;5030585;28;21487;-60
2021/05/27 11:14:24;;;;;;;9.23;5.53;;;19.70;53.40;;;;;;5058180;28;20286;-62
2021/05/27 11:17:01;;;;;;;8.57;5.97;;;19.80;53.60;;;;;;5057633;28;22027;-66
2021/05/27 11:22:37;;;;;;;11.10;6.67;;;20.00;52.50;;;;;;5062315;28;20712;-62
2021/05/27 11:25:19;;;;;;;9.83;6.53;;;19.90;52.80;;;;;;5043246;28;20247;-60
2021/05/27 11:27:52;;;;;;;9.20;6.63;;;20.00;52.60;;;;;;5053921;28;20221;-63
2021/05/27 11:30:30;;;;;;;10.60;6.93;;;20.00;52.30;;;;;;5062376;28;20240;-70
2021/05/27 11:33:12;;;;;;;6.77;5.63;;;20.10;52.70;;;;;;5055686;28;20444;-68
2021/05/27 11:35:51;;;;;;;8.73;6.40;;;20.10;52.40;;;;;;5055258;28;20225;-60
2021/05/27 11:38:20;;;;;;;8.33;5.53;;;20.10;52.10;;;;;;5063198;28;20239;-58
2021/05/27 11:40:52;;;;;;;7.80;5.50;;;20.20;52.00;;;;;;5069358;28;20240;-59
2021/05/27 11:43:29;;;;;;;9.40;6.57;;;20.20;51.90;;;;;;5064309;28;20225;-60
2021/05/27 11:45:57;;;;;;;12.37;6.50;;;20.20;52.40;;;;;;5065939;28;20443;-62
2021/05/27 11:48:35;;;;;;;14.57;6.13;;;20.20;51.90;;;;;;5057592;28;20622;-57
2021/05/27 11:51:12;;;;;;;9.10;5.67;;;20.30;51.90;;;;;;5056583;28;20854;-60
2021/05/27 11:53:58;;;;;;;10.00;5.87;;;20.30;51.90;;;;;;5057648;28;20213;-62
2021/05/27 11:56:36;;;;;;;9.03;6.00;;;20.30;51.80;;;;;;5057904;28;21380;-61
2021/05/27 11:59:22;;;;;;;14.17;6.57;;;20.30;51.80;;;;;;5043093;28;20232;-61
2021/05/27 12:01:58;;;;;;;8.70;5.90;;;20.30;51.70;;;;;;5060177;28;20225;-62
2021/05/27 12:04:27;;;;;;;8.90;6.53;;;20.30;51.50;;;;;;5054713;28;20680;-63
2021/05/27 12:07:19;;;;;;;9.03;6.10;;;20.30;51.40;;;;;;5043216;28;20593;-64
2021/05/27 12:09:49;;;;;;;9.13;6.53;;;20.30;51.30;;;;;;5040151;28;20351;-63
2021/05/27 12:12:24;;;;;;;12.87;6.23;;;20.20;51.10;;;;;;5060332;28;20221;-62
2021/05/27 12:15:00;;;;;;;11.93;6.17;;;20.30;51.30;;;;;;5056512;28;20225;-60
2021/05/27 12:17:32;;;;;;;7.27;5.30;;;20.20;50.90;;;;;;5059716;28;20819;-59
2021/05/27 12:20:06;;;;;;;9.10;4.97;;;20.20;51.10;;;;;;5055603;28;20222;-59
2021/05/27 12:22:50;;;;;;;12.97;5.40;;;20.20;51.50;;;;;;5047602;28;20223;-58
2021/05/27 12:25:27;;;;;;;10.90;5.10;;;20.30;51.30;;;;;;5065606;28;20233;-57
2021/05/27 12:27:57;;;;;;;10.33;4.73;;;20.30;51.20;;;;;;5053808;28;20220;-60
2021/05/27 12:30:30;;;;;;;6.67;4.40;;;20.40;51.30;;;;;;5057359;28;20641;-59
2021/05/27 12:32:58;;;;;;;7.67;4.30;;;20.30;51.30;;;;;;5058014;28;21447;-58
2021/05/27 12:35:39;;;;;;;12.73;5.20;;;20.40;51.30;;;;;;5064781;28;21454;-56
2021/05/27 12:38:17;;;;;;;7.47;4.37;;;20.40;51.10;;;;;;5050578;28;20323;-58
2021/05/27 12:41:06;;;;;;;8.80;4.60;;;20.40;50.90;;;;;;5055530;28;20615;-67
2021/05/27 12:43:37;;;;;;;9.00;4.47;;;20.40;51.40;;;;;;5048709;28;20252;-58
2021/05/27 12:46:16;;;;;;;9.17;4.20;;;20.50;52.00;;;;;;5062519;28;20242;-71
2021/05/27 12:48:47;;;;;;;7.17;3.93;;;20.60;52.20;;;;;;5053709;28;20217;-64
2021/05/27 12:51:15;;;;;;;8.33;3.83;;;20.60;52.30;;;;;;5058272;28;20225;-68
2021/05/27 12:53:51;;;;;;;6.07;3.47;;;20.70;52.50;;;;;;5058259;28;20217;-68
2021/05/27 12:56:31;;;;;;;5.80;2.97;;;20.70;52.60;;;;;;5057683;28;20228;-61
2021/05/27 12:59:06;;;;;;;7.50;3.93;;;20.80;52.70;;;;;;5048518;28;20740;-61
2021/05/27 13:01:40;;;;;;;7.30;3.33;;;20.90;52.80;;;;;;5058343;28;20730;-62
2021/05/27 13:04:09;;;;;;;5.43;3.30;;;20.90;52.60;;;;;;5055970;28;20226;-65
2021/05/27 13:07:05;;;;;;;8.70;3.33;;;20.90;52.70;;;;;;5059398;28;20294;-58
2021/05/27 13:09:55;;;;;;;10.13;3.40;;;21.00;52.90;;;;;;5039048;28;20229;-58
2021/05/27 13:12:23;;;;;;;5.63;2.77;;;21.10;52.80;;;;;;5046598;28;21657;-60
2021/05/27 13:15:10;;;;;;;9.07;3.03;;;21.10;52.70;;;;;;5057820;28;20229;-60